Time;durP1;ratioP1;P1;durP2;ratioP2;P2;SDS_P1;SDS_P2;PMS_P1;PMS_P2;Temp;Humidity;BMP_temperature;BMP_pressure;BME280_temperature;BME280_humidity;BME280_pressure;Samples;Min_cycle;Max_cycle;Signal;HPM_P1;HPM_P2
2024/02/14 00:00:13;;;;;;;10.30;3.00;;;5.20;99.90;;;;;;4925628;29;20040;-67
2024/02/14 00:02:40;;;;;;;6.00;2.50;;;5.20;99.90;;;;;;4905951;29;20100;-69
2024/02/14 00:05:07;;;;;;;7.18;2.90;;;5.30;99.90;;;;;;4911591;29;20040;-68
2024/02/14 00:07:33;;;;;;;6.00;2.30;;;5.30;99.90;;;;;;4912518;29;20059;-69
2024/02/14 00:09:58;;;;;;;4.25;2.45;;;5.30;99.90;;;;;;4916932;29;20040;-68
2024/02/14 00:12:24;;;;;;;5.60;2.50;;;5.30;99.90;;;;;;4907791;29;20103;-68
2024/02/14 00:14:50;;;;;;;4.32;2.05;;;5.30;99.90;;;;;;4917001;29;20040;-69
2024/02/14 00:17:16;;;;;;;5.00;2.17;;;5.30;99.90;;;;;;4903654;29;20044;-70
2024/02/14 00:19:41;;;;;;;5.30;2.05;;;5.40;99.90;;;;;;4902852;29;20643;-70
2024/02/14 00:22:07;;;;;;;4.35;1.88;;;5.40;99.90;;;;;;4893491;29;20135;-70
2024/02/14 00:24:33;;;;;;;9.55;2.47;;;5.40;99.90;;;;;;4902586;29;20408;-70
2024/02/14 00:27:00;;;;;;;9.68;2.55;;;5.40;99.90;;;;;;4902876;29;20048;-70
2024/02/14 00:29:26;;;;;;;8.48;2.53;;;5.40;99.90;;;;;;4907331;29;20044;-70
2024/02/14 00:31:51;;;;;;;6.93;2.10;;;5.40;99.90;;;;;;4904075;29;20091;-70
2024/02/14 00:34:17;;;;;;;5.28;1.90;;;5.40;99.90;;;;;;4906104;29;20071;-69
2024/02/14 00:36:42;;;;;;;7.82;2.00;;;5.40;99.90;;;;;;4904799;29;20051;-69
2024/02/14 00:39:09;;;;;;;7.88;2.13;;;5.40;99.90;;;;;;4899172;29;20066;-68
2024/02/14 00:41:35;;;;;;;5.38;2.08;;;5.40;99.90;;;;;;4923232;29;20040;-68
2024/02/14 00:44:02;;;;;;;6.38;2.60;;;5.50;99.90;;;;;;4905113;29;20048;-67
2024/02/14 00:46:29;;;;;;;6.50;2.08;;;5.50;99.90;;;;;;4903138;29;20067;-68
2024/02/14 00:48:54;;;;;;;6.63;2.00;;;5.50;99.90;;;;;;4905766;29;20052;-68
2024/02/14 00:51:21;;;;;;;8.23;1.88;;;5.50;99.90;;;;;;4901801;29;20037;-68
2024/02/14 00:53:46;;;;;;;7.70;1.80;;;5.50;99.90;;;;;;4905201;29;20184;-68
2024/02/14 00:56:12;;;;;;;5.65;2.10;;;5.50;99.90;;;;;;4893715;29;20580;-68
2024/02/14 00:58:38;;;;;;;10.75;2.20;;;5.50;99.90;;;;;;4899548;29;20055;-68
2024/02/14 01:01:03;;;;;;;5.28;1.55;;;5.50;99.90;;;;;;4905615;29;20131;-68
2024/02/14 01:03:29;;;;;;;3.38;1.73;;;5.50;99.90;;;;;;4902523;29;20486;-68
2024/02/14 01:05:55;;;;;;;4.43;1.65;;;5.50;99.90;;;;;;4902186;29;20053;-68
2024/02/14 01:08:20;;;;;;;4.75;1.65;;;5.60;99.90;;;;;;4898157;29;20049;-68
2024/02/14 01:10:46;;;;;;;4.30;2.15;;;5.60;99.90;;;;;;4899487;29;20044;-69
2024/02/14 01:13:12;;;;;;;5.25;1.52;;;5.60;99.90;;;;;;4903247;29;20119;-70
2024/02/14 01:15:38;;;;;;;6.07;2.13;;;5.60;99.90;;;;;;4903323;29;20051;-70
2024/02/14 01:18:04;;;;;;;4.90;1.83;;;5.60;99.90;;;;;;4899240;29;20040;-70
2024/02/14 01:20:29;;;;;;;6.05;1.63;;;5.60;99.90;;;;;;4901720;29;20080;-70
2024/02/14 01:22:55;;;;;;;5.70;1.90;;;5.60;99.90;;;;;;4912970;29;20052;-70
2024/02/14 01:25:21;;;;;;;3.58;1.50;;;5.60;99.90;;;;;;4906911;29;20103;-70
2024/02/14 01:27:47;;;;;;;5.75;1.63;;;5.60;99.90;;;;;;4902377;29;20116;-69
2024/02/14 01:30:14;;;;;;;7.93;1.90;;;5.60;99.90;;;;;;4903275;29;20428;-71
2024/02/14 01:32:40;;;;;;;4.03;1.85;;;5.70;99.90;;;;;;4906418;29;20048;-70
2024/02/14 01:35:06;;;;;;;4.07;1.45;;;5.70;99.90;;;;;;4904062;29;20055;-70
2024/02/14 01:37:32;;;;;;;4.20;1.80;;;5.70;99.90;;;;;;4902256;29;20803;-71
2024/02/14 01:39:57;;;;;;;6.47;2.13;;;5.70;99.90;;;;;;4902717;29;20267;-70
2024/02/14 01:42:23;;;;;;;11.23;1.60;;;5.70;99.90;;;;;;4894091;29;20052;-69
2024/02/14 01:44:49;;;;;;;6.00;2.38;;;5.70;99.90;;;;;;4902220;29;20062;-70
2024/02/14 01:47:14;;;;;;;5.70;1.90;;;5.70;99.90;;;;;;4902707;29;20123;-70
2024/02/14 01:49:44;;;;;;;7.80;2.00;;;5.70;99.90;;;;;;4903243;29;20040;-71
2024/02/14 01:52:10;;;;;;;6.22;1.90;;;5.70;99.90;;;;;;4897125;29;20519;-70
2024/02/14 01:54:36;;;;;;;3.22;1.63;;;5.80;99.90;;;;;;4894933;29;20114;-70
2024/02/14 01:57:02;;;;;;;8.05;2.25;;;5.80;99.90;;;;;;4904105;29;20149;-70
2024/02/14 01:59:28;;;;;;;6.53;1.63;;;5.80;99.90;;;;;;4902480;29;20052;-70
2024/02/14 02:01:54;;;;;;;6.32;1.67;;;5.80;99.90;;;;;;4906452;29;20096;-70
2024/02/14 02:04:20;;;;;;;3.92;1.70;;;5.90;99.90;;;;;;4905157;29;20092;-71
2024/02/14 02:06:46;;;;;;;6.20;1.90;;;5.90;99.90;;;;;;4898015;29;20043;-70
2024/02/14 02:09:11;;;;;;;8.13;1.83;;;5.90;99.90;;;;;;4896997;29;20044;-70
2024/02/14 02:11:50;;;;;;;9.77;2.13;;;5.90;99.90;;;;;;4906399;29;20036;-71
2024/02/14 02:14:16;;;;;;;7.75;1.77;;;5.90;99.90;;;;;;4897925;29;20044;-70
2024/02/14 02:16:42;;;;;;;4.85;1.73;;;5.90;99.90;;;;;;4899217;29;20075;-70
2024/02/14 02:19:09;;;;;;;5.22;1.50;;;5.90;99.90;;;;;;4892243;29;20119;-68
2024/02/14 02:21:35;;;;;;;6.93;1.95;;;5.90;99.90;;;;;;4916864;29;20050;-69
2024/02/14 02:24:01;;;;;;;4.57;1.50;;;5.90;99.90;;;;;;4900165;29;20448;-70
2024/02/14 02:26:27;;;;;;;4.07;1.85;;;5.90;99.90;;;;;;4905860;29;20047;-69
2024/02/14 02:28:53;;;;;;;7.95;2.53;;;5.90;99.90;;;;;;4898259;29;20045;-69
2024/02/14 02:31:20;;;;;;;4.65;1.95;;;5.90;99.90;;;;;;4904386;29;20076;-69
2024/02/14 02:33:46;;;;;;;3.83;2.00;;;5.90;99.90;;;;;;4903549;29;20047;-71
2024/02/14 02:36:12;;;;;;;4.82;2.00;;;5.90;99.90;;;;;;4902643;29;20048;-68
2024/02/14 02:38:41;;;;;;;4.28;1.70;;;5.90;99.90;;;;;;4904132;29;20040;-69
2024/02/14 02:41:06;;;;;;;3.20;1.92;;;5.90;99.90;;;;;;4904989;29;20044;-68
2024/02/14 02:43:35;;;;;;;7.65;1.95;;;5.80;99.90;;;;;;4905547;29;20623;-67
2024/02/14 02:46:01;;;;;;;7.68;2.20;;;5.90;99.90;;;;;;4901142;29;20040;-68
2024/02/14 02:48:27;;;;;;;4.50;1.83;;;5.90;99.90;;;;;;4903176;29;20092;-70
2024/02/14 02:50:53;;;;;;;4.82;2.20;;;5.90;99.90;;;;;;4899683;29;20040;-69
2024/02/14 02:53:19;;;;;;;7.18;3.55;;;5.90;99.90;;;;;;4904140;29;20399;-72
2024/02/14 02:55:45;;;;;;;4.97;1.80;;;5.90;99.90;;;;;;4903776;29;20083;-70
2024/02/14 02:58:11;;;;;;;2.15;1.50;;;5.90;99.90;;;;;;4902942;29;20048;-69
2024/02/14 03:00:37;;;;;;;3.92;1.70;;;5.90;99.90;;;;;;4905185;29;20040;-69
2024/02/14 03:03:04;;;;;;;6.15;1.83;;;5.90;99.90;;;;;;4901097;29;20043;-69
2024/02/14 03:05:33;;;;;;;6.80;1.92;;;5.90;99.90;;;;;;4905973;29;20052;-69
2024/02/14 03:07:59;;;;;;;5.65;1.48;;;5.90;99.90;;;;;;4904508;29;20602;-71
2024/02/14 03:10:25;;;;;;;2.80;1.42;;;5.90;99.90;;;;;;4904017;29;20056;-69
2024/02/14 03:12:51;;;;;;;8.45;1.70;;;6.00;99.90;;;;;;4906148;29;20816;-70
2024/02/14 03:15:18;;;;;;;3.97;1.50;;;6.00;99.90;;;;;;4899150;29;20402;-70
2024/02/14 03:17:44;;;;;;;2.17;1.40;;;6.00;99.90;;;;;;4901474;29;20695;-70
2024/02/14 03:20:12;;;;;;;5.25;1.40;;;5.90;99.90;;;;;;4898721;29;20054;-71
2024/02/14 03:22:44;;;;;;;5.43;1.52;;;5.90;99.90;;;;;;4906020;29;20344;-70
2024/02/14 03:25:13;;;;;;;4.80;1.58;;;5.90;99.90;;;;;;4893634;29;20165;-72
2024/02/14 03:27:39;;;;;;;4.63;1.65;;;5.90;99.90;;;;;;4902860;29;20470;-69
2024/02/14 03:30:06;;;;;;;3.65;1.38;;;5.90;99.90;;;;;;4899839;29;20049;-71
2024/02/14 03:32:32;;;;;;;3.53;1.40;;;5.90;99.90;;;;;;4892984;29;20716;-69
2024/02/14 03:34:58;;;;;;;4.97;1.60;;;5.90;99.90;;;;;;4916476;29;20048;-69
2024/02/14 03:37:24;;;;;;;4.43;1.35;;;5.90;99.90;;;;;;4897754;29;20050;-69
2024/02/14 03:39:49;;;;;;;2.28;1.15;;;5.90;99.90;;;;;;4896129;29;20039;-70
2024/02/14 03:42:15;;;;;;;2.30;1.10;;;5.90;99.90;;;;;;4902649;29;20136;-71
2024/02/14 03:44:40;;;;;;;2.90;1.42;;;5.90;99.90;;;;;;4902705;29;20143;-71
2024/02/14 03:47:06;;;;;;;2.38;1.20;;;5.90;99.90;;;;;;4897207;29;20540;-69
2024/02/14 03:49:32;;;;;;;3.17;1.58;;;6.00;99.90;;;;;;4899834;29;20111;-69
2024/02/14 03:51:57;;;;;;;;;;;6.00;99.90;;;;;;4901624;29;20037;-70
2024/02/14 03:54:23;;;;;;;3.97;1.30;;;6.00;99.90;;;;;;4906314;29;19987;-69
2024/02/14 03:56:49;;;;;;;2.47;1.10;;;6.00;99.90;;;;;;4908035;29;20086;-68
2024/02/14 03:59:14;;;;;;;3.60;1.30;;;6.00;99.90;;;;;;4906802;29;20132;-69
2024/02/14 04:01:46;;;;;;;4.38;1.30;;;6.00;99.90;;;;;;4920686;29;20040;-71
2024/02/14 04:04:12;;;;;;;2.65;1.20;;;6.00;99.90;;;;;;4901876;29;20108;-72
2024/02/14 04:06:38;;;;;;;2.78;1.60;;;6.10;99.90;;;;;;4908565;29;20036;-71
2024/02/14 04:09:04;;;;;;;2.65;1.33;;;6.10;99.90;;;;;;4906755;29;20091;-70
2024/02/14 04:11:29;;;;;;;2.53;1.10;;;6.00;99.90;;;;;;4907208;29;20040;-71
2024/02/14 04:13:55;;;;;;;5.00;1.08;;;6.00;99.90;;;;;;4900811;29;20130;-71
2024/02/14 04:16:22;;;;;;;1.52;0.90;;;6.00;99.90;;;;;;4900755;29;20048;-70
2024/02/14 04:18:47;;;;;;;1.98;1.20;;;6.00;99.90;;;;;;4897613;29;20060;-71
2024/02/14 04:21:14;;;;;;;5.00;1.25;;;6.00;99.90;;;;;;4893357;29;20579;-68
2024/02/14 04:23:40;;;;;;;3.28;1.17;;;6.00;99.90;;;;;;4901639;29;20079;-68
2024/02/14 04:26:06;;;;;;;2.60;1.00;;;5.90;99.90;;;;;;4898393;29;20040;-68
2024/02/14 04:28:31;;;;;;;3.78;0.95;;;5.90;99.90;;;;;;4898757;29;20111;-68
2024/02/14 04:30:57;;;;;;;3.13;0.85;;;5.90;99.90;;;;;;4894109;29;20040;-69
2024/02/14 04:33:23;;;;;;;1.20;0.80;;;5.90;99.90;;;;;;4901619;29;20067;-68
2024/02/14 04:35:48;;;;;;;1.95;1.10;;;5.90;99.90;;;;;;4902206;29;20543;-69
2024/02/14 04:38:14;;;;;;;2.05;0.80;;;5.90;99.90;;;;;;4899339;29;20076;-68
2024/02/14 04:40:40;;;;;;;1.65;0.65;;;5.90;99.90;;;;;;4916524;29;20037;-68
2024/02/14 04:43:06;;;;;;;1.10;0.60;;;5.90;99.90;;;;;;4893421;29;20500;-69
2024/02/14 04:45:31;;;;;;;1.38;0.70;;;6.00;99.90;;;;;;4905270;29;20122;-68
2024/02/14 04:47:57;;;;;;;2.65;1.08;;;5.90;99.90;;;;;;4897890;29;20075;-69
2024/02/14 04:50:23;;;;;;;1.55;0.70;;;6.00;99.90;;;;;;4906964;29;20048;-69
2024/02/14 04:52:48;;;;;;;0.85;0.70;;;6.00;99.90;;;;;;4901464;29;20052;-68
2024/02/14 04:55:14;;;;;;;1.17;0.95;;;6.00;99.90;;;;;;4894737;29;20060;-69
2024/02/14 04:57:40;;;;;;;1.30;0.88;;;6.10;99.90;;;;;;4901238;29;20052;-69
2024/02/14 05:00:08;;;;;;;1.08;0.77;;;6.10;99.90;;;;;;4901763;29;20040;-70
2024/02/14 05:02:34;;;;;;;1.70;0.77;;;6.10;99.90;;;;;;4902393;29;20508;-70
2024/02/14 05:05:01;;;;;;;2.42;1.00;;;6.10;99.90;;;;;;4900268;29;20048;-69
2024/02/14 05:07:27;;;;;;;1.70;1.00;;;6.10;99.90;;;;;;4906257;29;20131;-70
2024/02/14 05:09:55;;;;;;;1.98;0.85;;;6.00;99.90;;;;;;4895963;29;20183;-68
2024/02/14 05:12:20;;;;;;;2.60;1.05;;;6.10;99.90;;;;;;4897908;29;20051;-69
2024/02/14 05:14:47;;;;;;;1.77;0.90;;;6.10;99.90;;;;;;4908223;29;20044;-69
2024/02/14 05:17:13;;;;;;;2.35;1.00;;;6.00;99.90;;;;;;4893173;29;20116;-69
2024/02/14 05:19:41;;;;;;;0.80;0.70;;;6.10;99.90;;;;;;4902588;29;20143;-69
2024/02/14 05:22:07;;;;;;;2.60;1.30;;;6.10;99.90;;;;;;4896363;29;20533;-69
2024/02/14 05:24:33;;;;;;;3.92;0.95;;;6.10;99.90;;;;;;4897874;29;20048;-69
2024/02/14 05:26:58;;;;;;;1.02;0.70;;;6.10;99.90;;;;;;4900698;29;20048;-71
2024/02/14 05:29:24;;;;;;;2.53;0.68;;;6.10;99.90;;;;;;4916116;29;20711;-69
2024/02/14 05:31:52;;;;;;;1.23;0.75;;;6.20;99.90;;;;;;4898533;29;20698;-70
2024/02/14 05:34:17;;;;;;;4.25;1.77;;;6.20;99.90;;;;;;4900940;29;20073;-69
2024/02/14 05:36:42;;;;;;;1.38;0.90;;;6.20;99.90;;;;;;4900198;29;20124;-69
2024/02/14 05:39:08;;;;;;;2.05;0.82;;;6.20;99.90;;;;;;4894673;29;21895;-69
2024/02/14 05:41:34;;;;;;;1.20;0.80;;;6.30;99.90;;;;;;4896314;29;20059;-69
2024/02/14 05:44:00;;;;;;;1.67;1.08;;;6.30;99.90;;;;;;4897972;29;20051;-68
2024/02/14 05:46:25;;;;;;;1.40;1.00;;;6.30;99.90;;;;;;4896618;29;20392;-69
2024/02/14 05:48:55;;;;;;;2.80;0.90;;;6.30;99.90;;;;;;4902093;29;20515;-68
2024/02/14 05:51:20;;;;;;;0.95;0.75;;;6.40;99.90;;;;;;4898756;29;20044;-69
2024/02/14 05:53:46;;;;;;;4.20;1.10;;;6.30;99.90;;;;;;4890767;29;20047;-69
2024/02/14 05:56:12;;;;;;;1.98;0.80;;;6.40;99.90;;;;;;4900410;29;20040;-68
2024/02/14 05:58:37;;;;;;;;;;;6.30;99.90;;;;;;4884874;29;20224;-69
2024/02/14 06:01:03;;;;;;;1.27;0.70;;;6.30;99.90;;;;;;4883913;29;19919;-67
2024/02/14 06:03:28;;;;;;;0.50;0.50;;;6.30;99.90;;;;;;4891402;29;20048;-68
2024/02/14 06:05:54;;;;;;;2.60;0.70;;;6.30;99.90;;;;;;4884927;29;20044;-66
2024/02/14 06:08:20;;;;;;;3.00;0.90;;;6.30;99.90;;;;;;4882255;29;20642;-68
2024/02/14 06:10:46;;;;;;;0.88;0.60;;;6.30;99.90;;;;;;4887432;29;20043;-70
2024/02/14 06:13:11;;;;;;;1.13;0.80;;;6.30;99.90;;;;;;4891011;29;20051;-71
2024/02/14 06:15:37;;;;;;;1.02;0.70;;;6.30;99.90;;;;;;4896985;29;20500;-69
2024/02/14 06:18:03;;;;;;;0.85;0.57;;;6.30;99.90;;;;;;4898034;29;20489;-68
2024/02/14 06:20:28;;;;;;;2.35;0.80;;;6.30;99.90;;;;;;4897727;29;20623;-69
2024/02/14 06:22:54;;;;;;;;;;;6.30;99.90;;;;;;4891993;29;20120;-69
2024/02/14 06:25:20;;;;;;;2.13;0.60;;;6.30;99.90;;;;;;4898684;29;20463;-69
2024/02/14 06:27:46;;;;;;;1.25;0.57;;;6.30;99.90;;;;;;4897636;29;20104;-69
2024/02/14 06:30:12;;;;;;;2.38;0.70;;;6.30;99.90;;;;;;4896592;29;20115;-70
2024/02/14 06:32:38;;;;;;;1.08;0.60;;;6.30;99.90;;;;;;4889314;29;20047;-70
2024/02/14 06:35:04;;;;;;;1.35;0.60;;;6.40;99.90;;;;;;4897926;29;20033;-68
2024/02/14 06:37:29;;;;;;;5.22;0.82;;;6.40;99.90;;;;;;4893869;29;20052;-69
2024/02/14 06:39:55;;;;;;;3.60;0.90;;;6.40;99.90;;;;;;4894250;29;20060;-69
2024/02/14 06:42:20;;;;;;;1.55;0.40;;;6.40;99.90;;;;;;4903714;29;20044;-69
2024/02/14 06:44:46;;;;;;;2.55;0.80;;;6.40;99.90;;;;;;4893977;29;20576;-69
2024/02/14 06:47:11;;;;;;;2.65;0.57;;;6.50;99.90;;;;;;4897289;29;20040;-69
2024/02/14 06:49:37;;;;;;;1.25;0.55;;;6.50;99.90;;;;;;4902636;29;20085;-69
2024/02/14 06:52:03;;;;;;;2.58;0.80;;;6.50;99.90;;;;;;4897657;29;20048;-69
2024/02/14 06:54:29;;;;;;;;;;;6.50;99.90;;;;;;4901701;29;20540;-69
2024/02/14 06:56:54;;;;;;;4.72;1.10;;;6.60;99.90;;;;;;4898918;29;19993;-67
2024/02/14 06:59:20;;;;;;;2.55;0.85;;;6.60;99.90;;;;;;4897069;29;20075;-69
2024/02/14 07:01:46;;;;;;;1.85;0.65;;;6.60;99.90;;;;;;4905232;29;20044;-68
2024/02/14 07:04:11;;;;;;;1.30;0.60;;;6.60;99.90;;;;;;4901007;29;20044;-68
2024/02/14 07:06:37;;;;;;;1.10;0.82;;;6.60;99.90;;;;;;4900414;29;20044;-68
2024/02/14 07:09:03;;;;;;;2.50;1.10;;;6.60;99.90;;;;;;4900884;29;20053;-68
2024/02/14 07:11:28;;;;;;;;;;;6.60;99.90;;;;;;4897369;29;20124;-68
2024/02/14 07:13:54;;;;;;;4.88;0.90;;;6.70;99.90;;;;;;4897095;29;19923;-69
2024/02/14 07:16:19;;;;;;;3.25;0.80;;;6.70;99.90;;;;;;4900553;29;20047;-67
2024/02/14 07:18:45;;;;;;;1.02;0.60;;;6.70;99.90;;;;;;4899276;29;20040;-69
2024/02/14 07:21:10;;;;;;;2.67;0.90;;;6.70;99.90;;;;;;4909130;29;20044;-70
2024/02/14 07:23:36;;;;;;;;;;;6.70;99.90;;;;;;4900747;29;20063;-70
2024/02/14 07:26:02;;;;;;;4.60;0.50;;;6.70;99.90;;;;;;4903987;29;19923;-70
2024/02/14 07:28:27;;;;;;;0.85;0.50;;;6.70;99.90;;;;;;4902017;29;20040;-70
2024/02/14 07:30:53;;;;;;;0.95;0.52;;;6.70;99.90;;;;;;4893709;29;20037;-70
2024/02/14 07:33:19;;;;;;;0.50;0.30;;;6.80;99.90;;;;;;4901840;29;20134;-70
2024/02/14 07:35:47;;;;;;;0.73;0.50;;;6.80;99.90;;;;;;4901254;29;20044;-70
2024/02/14 07:38:12;;;;;;;2.33;0.90;;;6.90;99.90;;;;;;4889203;29;20044;-70
2024/02/14 07:40:39;;;;;;;1.13;0.63;;;6.90;99.90;;;;;;4898688;29;20044;-69
2024/02/14 07:43:06;;;;;;;1.02;0.73;;;6.90;99.90;;;;;;4904006;29;20040;-70
2024/02/14 07:45:31;;;;;;;0.93;0.60;;;7.00;99.90;;;;;;4903244;29;20058;-70
2024/02/14 07:47:57;;;;;;;2.72;1.05;;;6.90;99.90;;;;;;4894343;29;20444;-71
2024/02/14 07:50:22;;;;;;;2.88;0.70;;;7.00;99.90;;;;;;4902122;29;20553;-71
2024/02/14 07:52:48;;;;;;;3.45;0.77;;;7.00;99.90;;;;;;4901390;29;20086;-69
2024/02/14 07:55:14;;;;;;;1.27;0.63;;;7.00;99.90;;;;;;4899568;29;20040;-70
2024/02/14 07:57:39;;;;;;;;;;;7.10;99.90;;;;;;4899648;29;20040;-70
2024/02/14 08:00:08;;;;;;;1.20;1.00;;;7.10;99.90;;;;;;4897452;29;19931;-69
2024/02/14 08:02:34;;;;;;;2.03;0.82;;;7.10;99.90;;;;;;4891903;29;20055;-69
2024/02/14 08:05:00;;;;;;;1.98;0.80;;;7.10;99.90;;;;;;4906209;29;20047;-70
2024/02/14 08:07:26;;;;;;;1.63;0.80;;;7.10;99.90;;;;;;4903925;29;20056;-69
2024/02/14 08:09:52;;;;;;;2.78;1.10;;;7.10;99.90;;;;;;4901662;29;20709;-68
2024/02/14 08:12:17;;;;;;;;;;;7.10;99.90;;;;;;4907062;29;20036;-69
2024/02/14 08:14:43;;;;;;;3.95;0.80;;;7.10;99.90;;;;;;4907333;29;19919;-70
2024/02/14 08:17:08;;;;;;;2.78;0.90;;;7.20;99.90;;;;;;4902187;29;20144;-70
2024/02/14 08:19:34;;;;;;;1.45;0.63;;;7.10;99.90;;;;;;4895206;29;20107;-69
2024/02/14 08:22:01;;;;;;;0.80;0.70;;;7.20;99.90;;;;;;4904930;29;20130;-69
2024/02/14 08:24:27;;;;;;;3.03;1.00;;;7.20;99.90;;;;;;4906577;29;20052;-69
2024/02/14 08:26:53;;;;;;;5.65;1.25;;;7.20;99.90;;;;;;4921139;29;20047;-70
2024/02/14 08:29:19;;;;;;;1.92;0.77;;;7.20;99.90;;;;;;4894642;29;20053;-70
2024/02/14 08:31:45;;;;;;;0.75;0.50;;;7.20;99.90;;;;;;4898391;29;20044;-70
2024/02/14 08:34:10;;;;;;;1.10;0.60;;;7.30;99.90;;;;;;4905253;29;20040;-70
2024/02/14 08:36:40;;;;;;;0.88;0.65;;;7.30;99.90;;;;;;4901882;29;20048;-70
2024/02/14 08:39:09;;;;;;;0.90;0.60;;;7.30;99.90;;;;;;4904775;29;20052;-70
2024/02/14 08:41:36;;;;;;;0.60;0.50;;;7.40;99.90;;;;;;4895085;29;20056;-70
2024/02/14 08:44:02;;;;;;;2.75;0.80;;;7.40;99.90;;;;;;4890549;29;20056;-71
2024/02/14 08:46:28;;;;;;;2.28;0.75;;;7.40;99.90;;;;;;4894027;29;20176;-71
2024/02/14 08:48:53;;;;;;;2.50;0.70;;;7.40;99.90;;;;;;4900412;29;20143;-71
2024/02/14 08:51:22;;;;;;;0.70;0.43;;;7.40;99.90;;;;;;4895477;29;20135;-70
2024/02/14 08:53:48;;;;;;;1.17;0.57;;;7.40;99.90;;;;;;4889826;29;20044;-70
2024/02/14 08:56:13;;;;;;;1.17;0.55;;;7.40;99.90;;;;;;4889840;29;20119;-70
2024/02/14 08:58:39;;;;;;;3.53;0.60;;;7.40;99.90;;;;;;4893167;29;20670;-70
2024/02/14 09:01:05;;;;;;;;;;;7.40;99.90;;;;;;4898661;29;20032;-69
2024/02/14 09:03:31;;;;;;;0.80;0.70;;;7.40;99.90;;;;;;4893493;29;19961;-69
2024/02/14 09:05:57;;;;;;;1.02;0.57;;;7.50;99.90;;;;;;4898477;29;20478;-68
2024/02/14 09:08:23;;;;;;;2.08;0.60;;;7.50;99.90;;;;;;4897308;29;20109;-70
2024/02/14 09:10:50;;;;;;;0.70;0.63;;;7.60;99.90;;;;;;4901615;29;20048;-69
2024/02/14 09:13:15;;;;;;;1.02;0.80;;;7.70;99.90;;;;;;4898494;29;20044;-67
2024/02/14 09:15:41;;;;;;;1.10;0.70;;;7.60;99.90;;;;;;4898112;29;20107;-69
2024/02/14 09:18:06;;;;;;;;;;;7.70;99.90;;;;;;4890304;29;20048;-70
2024/02/14 09:20:32;;;;;;;1.90;0.90;;;7.70;99.90;;;;;;4898862;29;19975;-70
2024/02/14 09:22:58;;;;;;;1.77;1.40;;;7.80;99.90;;;;;;4903333;29;20042;-71
2024/02/14 09:25:25;;;;;;;1.75;1.13;;;7.70;99.90;;;;;;4899840;29;20642;-69
2024/02/14 09:27:51;;;;;;;2.20;0.93;;;7.80;99.90;;;;;;4899347;29;20435;-70
2024/02/14 09:30:17;;;;;;;2.50;1.50;;;7.80;99.90;;;;;;4898320;29;20565;-69
2024/02/14 09:32:44;;;;;;;1.45;1.13;;;7.80;99.90;;;;;;4881582;29;20044;-70
2024/02/14 09:35:10;;;;;;;5.07;1.10;;;7.90;99.90;;;;;;4904870;29;20060;-71
2024/02/14 09:37:37;;;;;;;1.90;1.00;;;8.00;99.90;;;;;;4902383;29;20130;-68
2024/02/14 09:40:04;;;;;;;1.63;0.95;;;8.00;99.90;;;;;;4902981;29;20095;-70
2024/02/14 09:42:42;;;;;;;1.58;0.80;;;8.10;99.90;;;;;;4902331;29;20394;-70
2024/02/14 09:45:08;;;;;;;0.90;0.73;;;8.10;99.90;;;;;;4883845;29;20055;-70
2024/02/14 09:47:35;;;;;;;3.45;1.20;;;8.10;99.90;;;;;;4899193;29;20131;-71
2024/02/14 09:50:06;;;;;;;1.90;1.05;;;8.10;99.90;;;;;;4904405;29;20051;-70
2024/02/14 09:52:33;;;;;;;2.40;0.90;;;8.00;99.90;;;;;;4902502;29;20048;-70
2024/02/14 09:55:02;;;;;;;2.47;0.65;;;8.10;99.90;;;;;;4900198;29;20052;-69
2024/02/14 09:57:29;;;;;;;1.60;0.80;;;8.10;99.90;;;;;;4904973;29;20059;-69
2024/02/14 09:59:56;;;;;;;2.00;0.90;;;8.10;99.90;;;;;;4884396;29;20049;-70
2024/02/14 10:02:22;;;;;;;1.33;0.80;;;8.20;99.90;;;;;;4900527;29;20054;-69
2024/02/14 10:04:47;;;;;;;1.00;0.77;;;8.30;99.90;;;;;;4922288;29;20044;-69
2024/02/14 10:07:13;;;;;;;2.83;1.10;;;8.30;99.90;;;;;;4906494;29;20059;-72
2024/02/14 10:09:42;;;;;;;;;;;8.40;99.90;;;;;;4905996;29;20130;-70
2024/02/14 10:12:11;;;;;;;2.45;1.27;;;8.40;99.90;;;;;;4901008;29;19919;-70
2024/02/14 10:14:37;;;;;;;4.88;1.63;;;8.50;99.90;;;;;;4874013;29;20045;-69
2024/02/14 10:17:04;;;;;;;1.92;1.40;;;8.50;99.90;;;;;;4901180;29;20043;-70
2024/02/14 10:19:30;;;;;;;2.90;1.63;;;8.50;99.90;;;;;;4902671;29;20052;-70
2024/02/14 10:22:03;;;;;;;2.22;1.40;;;8.50;99.90;;;;;;4899380;29;20516;-70
2024/02/14 10:24:30;;;;;;;3.58;1.30;;;8.60;99.90;;;;;;4904126;29;20165;-70
2024/02/14 10:26:57;;;;;;;2.15;1.50;;;8.60;99.90;;;;;;4897761;29;20048;-70
2024/02/14 10:29:24;;;;;;;1.83;1.10;;;8.70;99.90;;;;;;4888873;29;20045;-70
2024/02/14 10:31:50;;;;;;;2.97;1.63;;;8.90;99.90;;;;;;4900315;29;20053;-70
2024/02/14 10:34:16;;;;;;;;;;;8.90;99.90;;;;;;4903888;29;20048;-68
2024/02/14 10:36:45;;;;;;;5.50;1.60;;;8.90;99.90;;;;;;4903010;29;20403;-66
2024/02/14 10:39:15;;;;;;;3.55;1.25;;;9.00;99.90;;;;;;4901427;29;20084;-70
2024/02/14 10:41:41;;;;;;;4.97;1.60;;;9.00;99.90;;;;;;4902017;29;20096;-69
2024/02/14 10:44:07;;;;;;;;;;;9.00;99.90;;;;;;4888972;29;21057;-68
2024/02/14 10:46:36;;;;;;;4.70;1.48;;;9.00;99.90;;;;;;4885561;29;19923;-69
2024/02/14 10:49:04;;;;;;;3.95;1.52;;;9.00;99.90;;;;;;4888092;29;20052;-70
2024/02/14 10:51:35;;;;;;;2.45;1.30;;;8.90;99.90;;;;;;4899420;29;20052;-68
2024/02/14 10:54:09;;;;;;;2.10;1.00;;;8.90;99.90;;;;;;4897166;29;20112;-70
2024/02/14 10:56:36;;;;;;;3.08;1.10;;;8.80;99.90;;;;;;4894162;29;20591;-70
2024/02/14 10:59:04;;;;;;;3.47;1.17;;;8.80;99.90;;;;;;4898921;29;20049;-70
2024/02/14 11:01:32;;;;;;;3.72;1.00;;;8.80;99.90;;;;;;4900879;29;20052;-68
2024/02/14 11:04:00;;;;;;;2.17;1.05;;;8.80;99.90;;;;;;4906730;29;20036;-70
2024/02/14 11:06:26;;;;;;;1.52;0.80;;;8.80;99.90;;;;;;4904586;29;20036;-68
2024/02/14 11:09:07;;;;;;;1.95;1.00;;;8.80;99.90;;;;;;4899574;29;20156;-70
2024/02/14 11:11:33;;;;;;;3.00;1.00;;;8.80;99.90;;;;;;4895103;29;20103;-68
2024/02/14 11:13:59;;;;;;;3.72;1.20;;;8.80;99.90;;;;;;4900644;29;20060;-69
2024/02/14 11:16:29;;;;;;;1.60;1.02;;;8.80;99.90;;;;;;4874354;29;20052;-69
2024/02/14 11:19:12;;;;;;;9.10;1.13;;;8.90;99.90;;;;;;4895885;29;20063;-68
2024/02/14 11:21:46;;;;;;;3.67;1.10;;;9.00;99.90;;;;;;4902272;29;20051;-68
2024/02/14 11:24:14;;;;;;;2.38;1.23;;;9.10;99.90;;;;;;4894756;29;20107;-67
2024/02/14 11:26:51;;;;;;;4.57;1.35;;;9.10;99.90;;;;;;4905329;29;20048;-66
2024/02/14 11:29:18;;;;;;;7.68;1.40;;;9.10;99.90;;;;;;4896627;29;20048;-69
2024/02/14 11:31:50;;;;;;;2.28;1.33;;;9.20;99.90;;;;;;4894088;29;20057;-67
2024/02/14 11:34:16;;;;;;;2.95;0.85;;;9.20;99.90;;;;;;4900469;29;20044;-67
2024/02/14 11:36:43;;;;;;;;;;;9.20;99.90;;;;;;4921573;29;20075;-72
2024/02/14 11:39:08;;;;;;;4.72;1.10;;;9.20;99.90;;;;;;4899193;29;20616;-66
2024/02/14 11:41:34;;;;;;;1.73;0.70;;;9.20;99.90;;;;;;4904786;29;20124;-70
2024/02/14 11:44:06;;;;;;;2.72;0.82;;;9.20;99.90;;;;;;4904223;29;20055;-68
2024/02/14 11:46:33;;;;;;;4.88;1.08;;;9.20;99.90;;;;;;4901300;29;20507;-70
2024/02/14 11:49:00;;;;;;;2.83;0.80;;;9.20;99.90;;;;;;4890229;29;20149;-68
2024/02/14 11:51:30;;;;;;;1.90;0.82;;;9.30;99.90;;;;;;4894519;29;20649;-68
2024/02/14 11:54:04;;;;;;;2.88;1.05;;;9.30;99.90;;;;;;4900019;29;20066;-66
2024/02/14 11:56:33;;;;;;;2.17;1.55;;;9.40;99.90;;;;;;4913277;29;20052;-68
2024/02/14 11:59:03;;;;;;;4.38;0.85;;;9.40;99.90;;;;;;4894099;29;20052;-68
2024/02/14 12:01:34;;;;;;;1.77;0.73;;;9.40;99.90;;;;;;4903446;29;20052;-68
2024/02/14 12:04:01;;;;;;;3.00;1.10;;;9.50;99.90;;;;;;4901419;29;20080;-70
2024/02/14 12:06:34;;;;;;;2.72;1.05;;;9.50;99.90;;;;;;4889317;29;20284;-68
2024/02/14 12:09:08;;;;;;;3.70;0.90;;;9.60;99.90;;;;;;4892655;29;20159;-69
2024/02/14 12:11:38;;;;;;;2.80;0.88;;;9.50;99.90;;;;;;4893918;29;20056;-71
2024/02/14 12:14:09;;;;;;;3.08;1.15;;;9.60;99.90;;;;;;4910798;29;20040;-68
2024/02/14 12:16:36;;;;;;;4.05;1.13;;;9.60;99.90;;;;;;4896476;29;20142;-68
2024/02/14 12:19:08;;;;;;;4.75;0.90;;;9.60;99.90;;;;;;4898417;29;20054;-69
2024/02/14 12:21:37;;;;;;;2.22;1.00;;;9.60;99.90;;;;;;4904510;29;20043;-71
2024/02/14 12:24:07;;;;;;;3.33;0.80;;;9.60;99.90;;;;;;4891210;29;20041;-68
2024/02/14 12:26:34;;;;;;;3.90;0.93;;;9.60;99.90;;;;;;4902535;29;20036;-69
2024/02/14 12:29:04;;;;;;;2.33;0.77;;;9.70;99.90;;;;;;4897583;29;20687;-69
2024/02/14 12:31:33;;;;;;;7.53;1.25;;;9.70;99.90;;;;;;4905598;29;20055;-69
2024/02/14 12:33:59;;;;;;;1.88;0.80;;;9.70;99.90;;;;;;4895705;29;20041;-70
2024/02/14 12:36:29;;;;;;;2.70;0.88;;;9.70;99.90;;;;;;4906263;29;20048;-68
2024/02/14 12:38:57;;;;;;;2.85;0.70;;;9.70;99.90;;;;;;4902712;29;20651;-69
2024/02/14 12:41:26;;;;;;;2.15;0.70;;;9.80;99.90;;;;;;4905798;29;20024;-69
2024/02/14 12:43:52;;;;;;;2.08;0.70;;;9.80;99.90;;;;;;4903023;29;20040;-69
2024/02/14 12:46:18;;;;;;;2.53;0.68;;;9.80;99.90;;;;;;4903306;29;20036;-69
2024/02/14 12:48:44;;;;;;;;;;;9.80;99.90;;;;;;4897709;29;20527;-69
2024/02/14 12:51:10;;;;;;;1.97;0.60;;;9.70;99.90;;;;;;4904565;29;19922;-67
2024/02/14 12:53:36;;;;;;;1.77;0.60;;;9.70;99.90;;;;;;4906351;29;20044;-69
2024/02/14 12:56:02;;;;;;;;;;;9.80;99.90;;;;;;4898449;29;20639;-69